createdAt,value
2023-05-15T00:02:15.254Z,45.38
2023-05-15T00:04:41.936Z,44.83
2023-05-15T00:07:08.787Z,45.03
2023-05-15T00:09:35.438Z,41.20
2023-05-15T00:12:02.758Z,42.45
2023-05-15T00:14:29.432Z,41.92
2023-05-15T00:16:56.154Z,44.17
2023-05-15T00:19:22.782Z,43.97
2023-05-15T00:21:49.442Z,45.17
2023-05-15T00:24:16.197Z,44.97
2023-05-15T00:26:43.195Z,48.22
2023-05-15T00:29:10.753Z,44.35
2023-05-15T00:31:38.978Z,44.75
2023-05-15T00:34:05.621Z,46.28
2023-05-15T00:36:32.344Z,44.05
2023-05-15T00:38:58.984Z,43.08
2023-05-15T00:41:26.905Z,43.35
2023-05-15T00:43:54.430Z,41.20
2023-05-15T00:46:22.243Z,42.35
2023-05-15T00:48:50.625Z,43.53
2023-05-15T00:51:17.895Z,44.33
2023-05-15T00:53:44.762Z,42.08
2023-05-15T00:56:12.670Z,43.50
2023-05-15T00:58:39.576Z,41.03
2023-05-15T01:01:08.311Z,43.97
2023-05-15T01:03:36.689Z,44.00
2023-05-15T01:06:03.696Z,43.20
2023-05-15T01:08:33.301Z,42.70
2023-05-15T01:11:00.430Z,41.30
2023-05-15T01:13:27.067Z,38.97
2023-05-15T01:15:55.789Z,42.53
2023-05-15T01:18:22.482Z,43.08
2023-05-15T01:21:27.976Z,39.63
2023-05-15T01:24:09.894Z,39.08
2023-05-15T01:26:48.488Z,39.70
2023-05-15T01:29:30.967Z,36.85
2023-05-15T01:32:02.534Z,35.08
2023-05-15T01:34:39.703Z,36.10
2023-05-15T01:37:07.431Z,36.05
2023-05-15T01:39:35.925Z,33.00
2023-05-15T01:42:10.309Z,37.55
2023-05-15T01:44:40.529Z,36.15
2023-05-15T01:47:10.868Z,37.22
2023-05-15T01:49:38.520Z,36.95
2023-05-15T01:52:13.728Z,36.10
2023-05-15T01:54:42.128Z,33.90
2023-05-15T01:57:09.846Z,36.17
2023-05-15T01:59:37.380Z,36.53
2023-05-15T02:02:07.559Z,33.80
2023-05-15T02:04:34.400Z,35.40
2023-05-15T02:07:04.790Z,35.20
2023-05-15T02:09:32.369Z,35.10
2023-05-15T02:12:01.434Z,37.95
2023-05-15T02:14:29.155Z,36.22
2023-05-15T02:16:55.828Z,39.42
2023-05-15T02:19:22.503Z,38.22
2023-05-15T02:21:49.210Z,39.30
2023-05-15T02:24:15.869Z,38.10
2023-05-15T02:26:54.782Z,38.38
2023-05-15T02:29:30.131Z,36.83
2023-05-15T02:32:06.582Z,38.80
2023-05-15T02:34:36.195Z,40.05
2023-05-15T02:37:04.815Z,40.25
2023-05-15T02:39:32.357Z,38.75
2023-05-15T02:41:59.917Z,34.50
2023-05-15T02:44:26.943Z,37.60
2023-05-15T02:46:54.271Z,38.10
2023-05-15T02:49:22.043Z,36.25
2023-05-15T02:51:48.628Z,37.80
2023-05-15T02:54:15.385Z,36.40
2023-05-15T02:56:42.012Z,35.60
2023-05-15T02:59:09.052Z,35.78
2023-05-15T03:01:35.717Z,35.40
2023-05-15T03:04:02.481Z,38.25
2023-05-15T03:06:29.156Z,35.65
2023-05-15T03:08:55.923Z,38.33
2023-05-15T03:11:22.537Z,35.85
2023-05-15T03:13:49.181Z,37.10
2023-05-15T03:16:15.925Z,36.05
2023-05-15T03:18:42.715Z,39.10
2023-05-15T03:21:09.435Z,37.30
2023-05-15T03:23:37.999Z,37.35
2023-05-15T03:26:04.915Z,35.95
2023-05-15T03:28:31.677Z,36.85
2023-05-15T03:30:58.347Z,37.42
2023-05-15T03:33:25.377Z,42.53
2023-05-15T03:35:52.504Z,37.13
2023-05-15T03:38:19.987Z,39.55
2023-05-15T03:40:48.360Z,38.78
2023-05-15T03:43:16.299Z,39.42
2023-05-15T03:45:42.894Z,40.20
2023-05-15T03:48:09.565Z,41.63
2023-05-15T03:50:36.275Z,41.35
2023-05-15T03:53:03.111Z,39.92
2023-05-15T03:55:29.726Z,36.92
2023-05-15T03:57:57.136Z,41.08
2023-05-15T04:00:24.041Z,40.65
2023-05-15T04:02:51.090Z,38.95
2023-05-15T04:05:19.770Z,36.33
2023-05-15T04:07:46.544Z,37.55
2023-05-15T04:10:13.205Z,33.60
2023-05-15T04:12:39.810Z,37.70
2023-05-15T04:15:19.380Z,36.35
2023-05-15T04:17:47.792Z,34.38
2023-05-15T04:20:15.820Z,33.22
2023-05-15T04:22:43.501Z,33.10
2023-05-15T04:25:11.332Z,36.13
2023-05-15T04:27:38.807Z,33.08
2023-05-15T04:30:06.424Z,32.15
2023-05-15T04:32:36.380Z,33.15
2023-05-15T04:35:10.651Z,34.88
2023-05-15T04:37:38.277Z,34.72
2023-05-15T04:40:07.053Z,34.55
2023-05-15T04:42:34.609Z,33.97
2023-05-15T04:45:01.529Z,35.53
2023-05-15T04:47:28.348Z,30.95
2023-05-15T04:49:54.978Z,35.45
2023-05-15T04:52:21.794Z,37.00
2023-05-15T04:54:50.915Z,37.05
2023-05-15T04:57:17.738Z,34.17
2023-05-15T04:59:44.308Z,33.53
2023-05-15T05:02:10.934Z,33.42
2023-05-15T05:04:37.547Z,34.47
2023-05-15T05:07:05.824Z,34.55
2023-05-15T05:09:32.477Z,35.78
2023-05-15T05:12:00.053Z,34.80
2023-05-15T05:14:26.888Z,34.17
2023-05-15T05:16:53.554Z,33.70
2023-05-15T05:19:20.183Z,32.10
2023-05-15T05:21:47.040Z,33.53
2023-05-15T05:24:13.692Z,31.42
2023-05-15T05:26:43.168Z,31.77
2023-05-15T05:29:09.779Z,32.33
2023-05-15T05:31:36.501Z,31.88
2023-05-15T05:34:03.130Z,33.20
2023-05-15T05:36:29.756Z,31.65
2023-05-15T05:38:56.340Z,30.02
2023-05-15T05:41:23.271Z,30.42
2023-05-15T05:43:49.958Z,32.90
2023-05-15T05:46:16.584Z,33.15
2023-05-15T05:48:43.372Z,30.17
2023-05-15T05:51:09.990Z,32.45
2023-05-15T05:53:37.619Z,31.98
2023-05-15T05:56:05.791Z,34.35
2023-05-15T05:58:32.467Z,32.00
2023-05-15T06:00:59.113Z,31.55
2023-05-15T06:03:25.966Z,31.33
2023-05-15T06:05:53.685Z,29.45
2023-05-15T06:08:20.667Z,30.88
2023-05-15T06:10:47.309Z,29.40
2023-05-15T06:13:15.098Z,27.85
2023-05-15T06:15:42.122Z,26.20
2023-05-15T06:18:08.919Z,28.33
2023-05-15T06:20:35.702Z,26.63
2023-05-15T06:23:02.339Z,23.38
2023-05-15T06:25:29.043Z,25.55
2023-05-15T06:27:55.843Z,26.23
2023-05-15T06:30:23.029Z,28.58
2023-05-15T06:32:49.946Z,25.02
2023-05-15T06:35:16.761Z,26.52
2023-05-15T06:37:43.594Z,24.90
2023-05-15T06:40:10.833Z,23.13
2023-05-15T06:42:37.616Z,26.15
2023-05-15T06:45:04.720Z,26.30
2023-05-15T06:47:31.386Z,24.42
2023-05-15T06:49:58.107Z,26.52
2023-05-15T06:52:24.716Z,24.05
2023-05-15T06:54:52.200Z,26.60
2023-05-15T06:57:19.638Z,25.45
2023-05-15T06:59:46.468Z,25.33
2023-05-15T07:02:13.333Z,24.75
2023-05-15T07:04:40.027Z,25.58
2023-05-15T07:07:07.185Z,22.70
2023-05-15T07:09:34.406Z,23.05
2023-05-15T07:12:01.100Z,23.77
2023-05-15T07:14:27.783Z,22.77
2023-05-15T07:16:54.396Z,23.13
2023-05-15T07:19:21.604Z,22.50
2023-05-15T07:21:48.374Z,22.88
2023-05-15T07:24:15.042Z,21.92
2023-05-15T07:26:54.335Z,20.58
2023-05-15T07:29:25.321Z,19.77
2023-05-15T07:31:52.010Z,20.30
2023-05-15T07:34:18.698Z,21.35
2023-05-15T07:36:45.382Z,20.73
2023-05-15T07:39:12.307Z,21.75
2023-05-15T07:41:39.054Z,21.67
2023-05-15T07:44:06.093Z,20.88
2023-05-15T07:46:33.684Z,19.95
2023-05-15T07:49:00.561Z,19.95
2023-05-15T07:51:27.287Z,19.38
2023-05-15T07:53:54.281Z,20.13
2023-05-15T07:56:21.520Z,20.08
2023-05-15T07:58:48.717Z,19.55
2023-05-15T08:01:16.058Z,20.95
2023-05-15T08:03:42.816Z,19.17
2023-05-15T08:06:09.561Z,19.13
2023-05-15T08:08:36.179Z,18.67
2023-05-15T08:11:02.819Z,18.25
2023-05-15T08:13:29.508Z,18.83
2023-05-15T08:15:56.632Z,18.83
2023-05-15T08:18:23.396Z,18.88
2023-05-15T08:20:50.055Z,19.70
2023-05-15T08:23:16.670Z,17.88
2023-05-15T08:25:43.808Z,18.50
2023-05-15T08:28:11.101Z,17.90
2023-05-15T08:30:37.907Z,17.58
2023-05-15T08:33:05.004Z,17.60
2023-05-15T08:35:31.839Z,18.02
2023-05-15T08:37:59.344Z,18.27
2023-05-15T08:40:38.557Z,18.38
2023-05-15T08:43:15.160Z,17.90
2023-05-15T08:45:42.277Z,18.30
2023-05-15T08:48:11.820Z,17.73
2023-05-15T08:50:40.490Z,17.35
2023-05-15T08:53:08.050Z,15.75
2023-05-15T08:55:34.773Z,16.35
2023-05-15T08:58:01.516Z,15.13
2023-05-15T09:00:28.876Z,17.77
2023-05-15T09:02:55.661Z,18.90
2023-05-15T09:05:22.500Z,19.98
2023-05-15T09:07:49.338Z,17.10
2023-05-15T09:10:16.348Z,17.95
2023-05-15T09:12:44.534Z,18.08
2023-05-15T09:15:13.171Z,17.27
2023-05-15T09:17:40.690Z,16.50
2023-05-15T09:20:10.459Z,16.23
2023-05-15T09:22:37.282Z,18.38
2023-05-15T09:25:04.487Z,17.35
2023-05-15T09:27:41.129Z,17.40
2023-05-15T09:30:11.172Z,16.25
2023-05-15T09:32:38.157Z,16.67
2023-05-15T09:35:05.158Z,16.63
2023-05-15T09:37:33.809Z,16.08
2023-05-15T09:40:09.526Z,16.63
2023-05-15T09:42:36.754Z,16.75
2023-05-15T09:45:03.606Z,15.05
2023-05-15T09:47:30.478Z,15.60
2023-05-15T09:49:57.240Z,14.85
2023-05-15T09:52:23.924Z,16.33
2023-05-15T09:54:50.761Z,14.93
2023-05-15T09:57:21.720Z,14.02
2023-05-15T09:59:48.935Z,13.35
2023-05-15T10:02:25.089Z,13.43
2023-05-15T10:04:56.850Z,13.90
2023-05-15T10:07:29.480Z,13.02
2023-05-15T10:09:56.253Z,14.32
2023-05-15T10:12:23.903Z,13.55
2023-05-15T10:14:51.622Z,11.45
2023-05-15T10:17:20.468Z,10.18
2023-05-15T10:22:26.474Z,12.32
2023-05-15T10:25:00.873Z,12.73
2023-05-15T10:27:27.831Z,12.18
2023-05-15T10:29:54.912Z,13.40
2023-05-15T10:32:22.236Z,11.40
2023-05-15T10:34:49.558Z,11.30
2023-05-15T10:37:16.601Z,8.52
2023-05-15T10:39:44.169Z,11.50
2023-05-15T10:42:11.858Z,11.02
2023-05-15T10:44:38.464Z,11.38
2023-05-15T10:47:06.065Z,12.02
2023-05-15T10:49:32.793Z,13.10
2023-05-15T10:52:00.587Z,13.02
2023-05-15T10:54:28.384Z,13.70
2023-05-15T10:56:58.412Z,14.38
2023-05-15T10:59:32.554Z,14.38
2023-05-15T11:02:20.435Z,13.48
2023-05-15T11:04:47.913Z,11.70
2023-05-15T11:07:16.486Z,11.82
2023-05-15T11:09:43.178Z,11.10
2023-05-15T11:12:12.881Z,11.07
2023-05-15T11:14:41.843Z,12.93
2023-05-15T11:17:10.538Z,13.32
2023-05-15T11:19:48.960Z,13.75
2023-05-15T11:22:19.823Z,13.95
2023-05-15T11:24:59.406Z,12.38
2023-05-15T11:27:38.484Z,13.85
2023-05-15T11:30:22.857Z,13.25
2023-05-15T11:32:57.423Z,13.57
2023-05-15T11:35:27.831Z,13.48
2023-05-15T11:38:00.613Z,13.05
2023-05-15T11:40:31.851Z,13.38
2023-05-15T11:43:04.150Z,14.63
2023-05-15T11:45:33.440Z,14.20
2023-05-15T11:48:01.307Z,12.32
2023-05-15T11:50:28.605Z,12.88
2023-05-15T11:52:55.714Z,11.68
2023-05-15T11:55:23.499Z,11.73
2023-05-15T11:57:50.107Z,11.77
2023-05-15T12:00:17.002Z,11.73
2023-05-15T12:02:43.772Z,10.02
2023-05-15T12:05:10.964Z,9.25
2023-05-15T12:07:39.132Z,8.32
2023-05-15T12:10:06.770Z,8.70
2023-05-15T12:12:36.279Z,9.68
2023-05-15T12:15:03.069Z,10.02
2023-05-15T12:17:32.062Z,9.35
2023-05-15T12:19:59.919Z,9.60
2023-05-15T12:22:26.585Z,11.25
2023-05-15T12:24:53.207Z,11.68
2023-05-15T12:27:19.948Z,10.63
2023-05-15T12:29:46.755Z,10.57
2023-05-15T12:32:13.480Z,9.48
2023-05-15T12:34:40.956Z,9.27
2023-05-15T12:37:12.717Z,8.40
2023-05-15T12:39:52.386Z,8.95
2023-05-15T12:42:19.092Z,8.65
2023-05-15T12:44:45.715Z,8.13
2023-05-15T12:47:15.853Z,7.35
2023-05-15T12:49:42.893Z,7.15
2023-05-15T12:52:10.561Z,7.05
2023-05-15T12:54:43.609Z,7.75
2023-05-15T12:57:11.613Z,9.82
2023-05-15T12:59:39.843Z,11.20
2023-05-15T13:02:14.005Z,11.32
2023-05-15T13:04:40.845Z,10.43
2023-05-15T13:07:07.555Z,10.18
2023-05-15T13:09:35.410Z,10.07
2023-05-15T13:12:03.723Z,9.32
2023-05-15T13:14:34.302Z,9.70
2023-05-15T13:17:02.904Z,8.50
2023-05-15T13:19:29.824Z,9.20
2023-05-15T13:21:57.337Z,9.18
2023-05-15T13:24:23.950Z,9.57
2023-05-15T13:26:52.202Z,7.32
2023-05-15T13:29:19.130Z,7.25
2023-05-15T13:31:46.690Z,7.80
2023-05-15T13:34:13.552Z,7.68
2023-05-15T13:36:40.134Z,8.52
2023-05-15T13:39:06.727Z,8.75
2023-05-15T13:41:33.422Z,7.80
2023-05-15T13:44:00.428Z,8.10
2023-05-15T13:46:27.410Z,7.63
2023-05-15T13:48:54.031Z,7.40
2023-05-15T13:51:20.688Z,7.88
2023-05-15T13:53:47.495Z,8.50
2023-05-15T13:56:14.193Z,9.57
2023-05-15T13:58:41.190Z,7.90
2023-05-15T14:01:07.978Z,8.23
2023-05-15T14:03:34.880Z,9.57
2023-05-15T14:06:01.630Z,9.93
2023-05-15T14:08:28.246Z,9.63
2023-05-15T14:10:54.894Z,9.63
2023-05-15T14:13:21.681Z,9.35
2023-05-15T14:15:48.314Z,8.48
2023-05-15T14:18:15.121Z,10.48
2023-05-15T14:20:41.803Z,9.18
2023-05-15T14:23:08.477Z,7.97
2023-05-15T14:25:35.093Z,8.40
2023-05-15T14:28:01.719Z,7.90
2023-05-15T14:30:28.365Z,8.20
2023-05-15T14:32:54.990Z,6.00
2023-05-15T14:35:21.922Z,5.93
2023-05-15T14:37:48.485Z,7.53
2023-05-15T14:40:15.251Z,6.97
2023-05-15T14:42:41.914Z,7.22
2023-05-15T14:45:09.200Z,6.95
2023-05-15T14:47:35.860Z,6.78
2023-05-15T14:50:02.615Z,6.45
2023-05-15T14:52:29.236Z,7.22
2023-05-15T14:55:07.798Z,6.68
2023-05-15T14:57:35.853Z,6.88
2023-05-15T15:00:02.745Z,7.85
2023-05-15T15:02:29.543Z,7.72
2023-05-15T15:04:56.248Z,7.78
2023-05-15T15:07:22.963Z,7.63
2023-05-15T15:09:49.589Z,8.73
2023-05-15T15:12:16.251Z,8.25
2023-05-15T15:14:42.829Z,8.18
2023-05-15T15:17:09.506Z,8.35
2023-05-15T15:19:36.143Z,7.88
2023-05-15T15:22:02.828Z,8.88
2023-05-15T15:24:29.541Z,9.13
2023-05-15T15:26:56.357Z,9.85
2023-05-15T15:29:23.013Z,9.90
2023-05-15T15:31:49.831Z,9.88
2023-05-15T15:34:16.635Z,11.02
2023-05-15T15:36:43.746Z,11.07
2023-05-15T15:39:13.201Z,11.85
2023-05-15T15:41:39.934Z,11.13
2023-05-15T15:44:06.657Z,12.20
2023-05-15T15:46:33.335Z,10.48
2023-05-15T15:49:00.276Z,11.50
2023-05-15T15:51:26.923Z,11.07
2023-05-15T15:53:53.716Z,11.50
2023-05-15T15:56:21.270Z,10.45
2023-05-15T15:58:47.924Z,9.27
2023-05-15T16:01:14.754Z,9.82
2023-05-15T16:03:41.576Z,9.05
2023-05-15T16:06:08.361Z,8.27
2023-05-15T16:08:34.967Z,8.80
2023-05-15T16:11:01.726Z,8.88
2023-05-15T16:13:28.337Z,9.35
2023-05-15T16:15:54.945Z,9.38
2023-05-15T16:18:21.670Z,8.95
2023-05-15T16:20:48.501Z,9.35
2023-05-15T16:23:16.235Z,9.07
2023-05-15T16:25:47.221Z,9.40
2023-05-15T16:28:14.251Z,9.07
2023-05-15T16:30:48.861Z,7.50
2023-05-15T16:33:18.032Z,7.30
2023-05-15T16:35:44.999Z,7.30
2023-05-15T16:38:12.242Z,7.40
2023-05-15T16:40:39.178Z,9.27
2023-05-15T16:43:06.240Z,9.75
2023-05-15T16:45:32.941Z,8.60
2023-05-15T16:47:59.675Z,9.48
2023-05-15T16:50:26.731Z,8.93
2023-05-15T16:52:53.637Z,8.75
2023-05-15T16:55:20.430Z,8.50
2023-05-15T16:57:47.271Z,7.85
2023-05-15T17:00:15.087Z,8.32
2023-05-15T17:02:42.239Z,9.30
2023-05-15T17:05:10.217Z,9.23
2023-05-15T17:07:37.563Z,9.75
2023-05-15T17:10:05.264Z,11.35
2023-05-15T17:12:31.956Z,9.50
2023-05-15T17:14:58.661Z,9.90
2023-05-15T17:17:25.827Z,12.00
2023-05-15T17:19:53.089Z,12.63
2023-05-15T17:22:20.470Z,11.23
2023-05-15T17:24:50.635Z,12.65
2023-05-15T17:27:19.134Z,11.32
2023-05-15T17:29:46.014Z,10.15
2023-05-15T17:32:13.120Z,9.30
2023-05-15T17:34:39.844Z,11.30
2023-05-15T17:37:07.973Z,8.65
2023-05-15T17:39:35.075Z,15.43
2023-05-15T17:42:03.233Z,8.63
2023-05-15T17:44:31.319Z,7.88
2023-05-15T17:46:58.525Z,9.68
2023-05-15T17:49:26.198Z,9.02
2023-05-15T17:51:53.394Z,8.48
2023-05-15T17:54:20.117Z,9.75
2023-05-15T17:56:46.756Z,9.90
2023-05-15T17:59:13.408Z,8.85
2023-05-15T18:01:40.028Z,10.00
2023-05-15T18:04:06.722Z,11.90
2023-05-15T18:06:36.281Z,12.18
2023-05-15T18:09:03.271Z,13.48
2023-05-15T18:11:29.873Z,13.98
2023-05-15T18:13:56.640Z,12.20
2023-05-15T18:16:23.432Z,12.73
2023-05-15T18:18:52.051Z,12.13
2023-05-15T18:21:18.903Z,13.40
2023-05-15T18:23:45.715Z,13.57
2023-05-15T18:26:12.434Z,11.40
2023-05-15T18:28:39.084Z,11.18
2023-05-15T18:31:06.015Z,11.25
2023-05-15T18:33:33.369Z,11.98
2023-05-15T18:35:59.963Z,11.20
2023-05-15T18:38:26.606Z,11.13
2023-05-15T18:40:53.293Z,12.00
2023-05-15T18:43:19.950Z,10.55
2023-05-15T18:45:46.689Z,11.07
2023-05-15T18:48:13.310Z,10.10
2023-05-15T18:50:40.025Z,10.00
2023-05-15T18:53:07.068Z,9.50
2023-05-15T18:55:33.804Z,9.40
2023-05-15T18:58:00.569Z,8.23
2023-05-15T19:03:00.703Z,13.18
2023-05-15T19:05:27.697Z,9.77
2023-05-15T19:07:54.474Z,9.70
2023-05-15T19:10:21.150Z,9.35
2023-05-15T19:12:47.893Z,8.88
2023-05-15T19:15:15.787Z,8.10
2023-05-15T19:17:42.421Z,9.20
2023-05-15T19:20:09.524Z,9.10
2023-05-15T19:22:36.198Z,8.65
2023-05-15T19:25:02.855Z,8.07
2023-05-15T19:27:29.869Z,7.25
2023-05-15T19:29:57.446Z,6.05
2023-05-15T19:32:24.489Z,6.15
2023-05-15T19:34:51.995Z,6.15
2023-05-15T19:37:18.619Z,5.82
2023-05-15T19:39:45.300Z,5.50
2023-05-15T19:42:11.884Z,5.50
2023-05-15T19:44:38.505Z,5.40
2023-05-15T19:47:05.122Z,5.78
2023-05-15T19:49:31.804Z,5.60
2023-05-15T19:51:58.387Z,6.10
2023-05-15T19:54:25.030Z,6.20
2023-05-15T19:56:51.631Z,5.20
2023-05-15T19:59:18.263Z,4.00
2023-05-15T20:01:44.902Z,3.92
2023-05-15T20:04:13.628Z,4.68
2023-05-15T20:06:40.284Z,3.35
2023-05-15T20:09:06.904Z,3.70
2023-05-15T20:11:33.541Z,3.50
2023-05-15T20:14:00.620Z,4.20
2023-05-15T20:16:27.312Z,3.85
2023-05-15T20:18:55.323Z,3.50
2023-05-15T20:21:22.110Z,2.38
2023-05-15T20:23:49.351Z,2.70
2023-05-15T20:26:16.060Z,1.80
2023-05-15T20:28:45.183Z,2.03
2023-05-15T20:31:12.174Z,1.33
2023-05-15T20:33:38.925Z,1.58
2023-05-15T20:36:06.072Z,1.98
2023-05-15T20:38:33.876Z,1.45
2023-05-15T20:41:00.510Z,1.70
2023-05-15T20:43:27.119Z,1.05
2023-05-15T20:45:53.793Z,1.27
2023-05-15T20:48:20.541Z,1.60
2023-05-15T20:50:47.253Z,1.80
2023-05-15T20:53:13.882Z,1.25
2023-05-15T20:55:40.759Z,1.77
2023-05-15T20:58:07.733Z,1.50
2023-05-15T21:00:34.423Z,1.50
2023-05-15T21:03:01.141Z,1.58
2023-05-15T21:05:27.897Z,1.42
2023-05-15T21:07:54.467Z,0.90
2023-05-15T21:10:21.046Z,1.30
2023-05-15T21:12:47.751Z,1.70
2023-05-15T21:15:14.331Z,1.27
2023-05-15T21:17:41.018Z,1.33
2023-05-15T21:20:08.331Z,1.35
2023-05-15T21:22:35.044Z,1.15
2023-05-15T21:25:01.720Z,1.00
2023-05-15T21:27:28.329Z,1.40
2023-05-15T21:29:54.904Z,1.48
2023-05-15T21:32:23.314Z,1.40
2023-05-15T21:34:49.993Z,1.92
2023-05-15T21:37:16.731Z,1.50
2023-05-15T21:39:43.398Z,2.10
2023-05-15T21:42:10.096Z,1.73
2023-05-15T21:44:36.850Z,1.60
2023-05-15T21:47:03.616Z,2.03
2023-05-15T21:49:30.285Z,1.98
2023-05-15T21:51:56.912Z,1.95
2023-05-15T21:54:23.516Z,1.83
2023-05-15T21:56:51.726Z,2.45
2023-05-15T21:59:18.357Z,2.78
2023-05-15T22:01:45.138Z,2.05
2023-05-15T22:04:11.828Z,2.00
2023-05-15T22:06:38.507Z,2.40
2023-05-15T22:09:05.159Z,2.58
2023-05-15T22:11:31.817Z,3.15
2023-05-15T22:13:58.384Z,2.45
2023-05-15T22:16:43.440Z,2.50
2023-05-15T22:19:13.692Z,2.90
2023-05-15T22:21:48.452Z,2.95
2023-05-15T22:24:15.266Z,2.50
2023-05-15T22:26:42.163Z,2.40
2023-05-15T22:29:08.925Z,2.42
2023-05-15T22:31:35.577Z,2.20
2023-05-15T22:34:02.260Z,3.22
2023-05-15T22:36:28.909Z,3.63
2023-05-15T22:38:55.589Z,3.28
2023-05-15T22:41:22.229Z,2.30
2023-05-15T22:43:48.851Z,2.58
2023-05-15T22:46:16.265Z,2.50
2023-05-15T22:48:42.997Z,3.05
2023-05-15T22:51:10.379Z,2.42
2023-05-15T22:53:36.951Z,3.15
2023-05-15T22:56:03.572Z,3.00
2023-05-15T22:58:30.323Z,2.83
2023-05-15T23:00:57.028Z,2.90
2023-05-15T23:03:23.757Z,2.70
2023-05-15T23:05:53.100Z,3.25
2023-05-15T23:08:38.623Z,2.85
2023-05-15T23:11:05.270Z,2.95
2023-05-15T23:13:32.051Z,2.90
2023-05-15T23:15:58.765Z,2.70
2023-05-15T23:18:25.374Z,3.10
2023-05-15T23:20:52.334Z,3.83
2023-05-15T23:23:19.543Z,3.28
2023-05-15T23:25:46.318Z,3.47
2023-05-15T23:28:12.881Z,3.95
2023-05-15T23:30:39.476Z,3.25
2023-05-15T23:33:06.545Z,3.47
2023-05-15T23:35:33.274Z,3.97
2023-05-15T23:37:59.901Z,3.65
2023-05-15T23:40:26.935Z,3.05
2023-05-15T23:42:53.774Z,3.28
2023-05-15T23:45:20.374Z,3.20
2023-05-15T23:47:47.053Z,3.03
2023-05-15T23:50:13.660Z,3.25
2023-05-15T23:52:40.293Z,2.83
2023-05-15T23:55:07.749Z,3.47
2023-05-15T23:57:34.395Z,3.70
